createdAt,value
2022-09-27T00:01:02.562Z,4.00
2022-09-27T00:03:31.147Z,2.63
2022-09-27T00:06:05.434Z,2.50
2022-09-27T00:08:34.271Z,2.20
2022-09-27T00:11:05.518Z,2.17
2022-09-27T00:13:34.067Z,2.40
2022-09-27T00:16:05.500Z,2.33
2022-09-27T00:18:35.247Z,2.13
2022-09-27T00:21:08.236Z,2.53
2022-09-27T00:23:37.361Z,3.30
2022-09-27T00:26:09.330Z,3.23
2022-09-27T00:28:37.523Z,2.37
2022-09-27T00:31:06.236Z,7.93
2022-09-27T00:33:34.463Z,2.40
2022-09-27T00:36:06.576Z,2.03
2022-09-27T00:38:34.742Z,3.27
2022-09-27T00:41:02.957Z,2.47
2022-09-27T00:43:47.583Z,2.07
2022-09-27T00:46:20.610Z,2.80
2022-09-27T00:48:50.625Z,2.43
2022-09-27T00:51:19.006Z,2.80
2022-09-27T00:53:51.869Z,2.30
2022-09-27T00:56:25.446Z,2.20
2022-09-27T00:59:00.679Z,4.27
2022-09-27T01:01:30.549Z,3.90
2022-09-27T01:04:04.194Z,3.17
2022-09-27T01:06:32.746Z,3.63
2022-09-27T01:09:00.900Z,15.27
2022-09-27T01:11:41.506Z,6.40
2022-09-27T01:14:43.485Z,5.90
2022-09-27T01:17:25.575Z,3.77
2022-09-27T01:20:33.244Z,3.17
2022-09-27T01:23:21.662Z,2.40
2022-09-27T01:26:05.876Z,3.10
2022-09-27T01:28:52.336Z,2.83
2022-09-27T01:31:33.302Z,2.30
2022-09-27T01:34:05.942Z,3.87
2022-09-27T01:36:44.410Z,2.20
2022-09-27T01:39:26.489Z,2.50
2022-09-27T01:42:22.407Z,3.00
2022-09-27T01:45:02.233Z,2.80
2022-09-27T01:47:43.240Z,3.17
2022-09-27T01:50:35.294Z,2.87
2022-09-27T01:53:07.657Z,4.43
2022-09-27T01:55:48.049Z,3.77
2022-09-27T01:58:39.225Z,4.83
2022-09-27T02:01:10.758Z,5.77
2022-09-27T02:03:44.695Z,2.93
2022-09-27T02:06:37.423Z,5.53
2022-09-27T02:09:19.086Z,4.43
2022-09-27T02:12:05.838Z,5.13
2022-09-27T02:14:39.094Z,3.17
2022-09-27T02:17:13.949Z,6.53
2022-09-27T02:19:53.594Z,6.47
2022-09-27T02:22:35.045Z,5.93
2022-09-27T02:25:12.029Z,4.43
2022-09-27T02:27:48.242Z,4.73
2022-09-27T02:30:17.704Z,3.10
2022-09-27T02:32:48.778Z,5.10
2022-09-27T02:35:21.930Z,3.47
2022-09-27T02:37:50.558Z,3.60
2022-09-27T02:40:20.295Z,3.67
2022-09-27T02:42:48.646Z,5.17
2022-09-27T02:45:18.623Z,4.33
2022-09-27T02:48:08.619Z,3.23
2022-09-27T02:50:58.372Z,4.53
2022-09-27T02:53:51.338Z,5.33
2022-09-27T02:56:52.665Z,6.20
2022-09-27T02:59:49.703Z,8.20
2022-09-27T03:02:42.556Z,8.80
2022-09-27T03:05:36.137Z,8.67
2022-09-27T03:08:06.247Z,6.80
2022-09-27T03:10:34.474Z,8.27
2022-09-27T03:13:04.434Z,13.40
2022-09-27T03:15:33.978Z,7.03
2022-09-27T03:18:02.863Z,10.37
2022-09-27T03:20:49.574Z,8.40
2022-09-27T03:23:22.830Z,9.10
2022-09-27T03:25:51.779Z,9.57
2022-09-27T03:28:20.556Z,9.20
2022-09-27T03:30:49.937Z,8.73
2022-09-27T03:33:38.081Z,5.73
2022-09-27T03:36:13.102Z,8.20
2022-09-27T03:38:42.799Z,8.97
2022-09-27T03:41:14.562Z,9.67
2022-09-27T03:43:44.285Z,11.43
2022-09-27T03:46:12.509Z,7.37
2022-09-27T03:48:42.622Z,9.53
2022-09-27T03:51:12.719Z,9.70
2022-09-27T03:53:43.055Z,10.10
2022-09-27T03:56:11.817Z,5.33
2022-09-27T03:58:40.454Z,8.13
2022-09-27T04:01:09.169Z,5.27
2022-09-27T04:03:38.944Z,10.57
2022-09-27T04:06:27.114Z,7.37
2022-09-27T04:08:57.276Z,7.47
2022-09-27T04:11:33.623Z,7.60
2022-09-27T04:14:02.004Z,3.43
2022-09-27T04:16:32.731Z,4.63
2022-09-27T04:19:19.686Z,5.17
2022-09-27T04:22:10.957Z,2.50
2022-09-27T04:24:40.912Z,2.23
2022-09-27T04:27:22.555Z,2.63
2022-09-27T04:29:52.707Z,5.87
2022-09-27T04:32:53.528Z,3.87
2022-09-27T04:35:57.737Z,5.40
2022-09-27T04:38:26.134Z,2.60
2022-09-27T04:40:55.933Z,3.97
2022-09-27T04:43:24.897Z,3.10
2022-09-27T04:45:53.634Z,10.10
2022-09-27T04:48:22.238Z,4.33
2022-09-27T04:50:58.132Z,4.93
2022-09-27T04:53:27.183Z,3.60
2022-09-27T04:55:57.326Z,4.13
2022-09-27T04:58:26.421Z,4.50
2022-09-27T05:00:55.720Z,5.73
2022-09-27T05:03:45.085Z,4.03
2022-09-27T05:06:15.498Z,6.23
2022-09-27T05:08:45.551Z,2.80
2022-09-27T05:11:22.364Z,6.17
2022-09-27T05:14:29.038Z,4.20
2022-09-27T05:17:09.987Z,6.70
2022-09-27T05:19:49.132Z,2.50
2022-09-27T05:22:28.144Z,2.37
2022-09-27T05:24:56.648Z,2.73
2022-09-27T05:27:27.596Z,3.90
2022-09-27T05:29:56.963Z,3.30
2022-09-27T05:32:34.518Z,5.27
2022-09-27T05:35:21.743Z,4.17
2022-09-27T05:37:53.335Z,3.83
2022-09-27T05:40:40.222Z,2.70
2022-09-27T05:43:11.617Z,3.10
2022-09-27T05:45:40.118Z,3.20
2022-09-27T05:48:09.081Z,4.87
2022-09-27T05:50:46.712Z,3.07
2022-09-27T05:53:15.069Z,3.20
2022-09-27T05:55:44.000Z,3.83
2022-09-27T05:58:17.348Z,4.37
2022-09-27T06:00:50.105Z,8.13
2022-09-27T06:03:41.322Z,5.53
2022-09-27T06:06:41.206Z,2.90
2022-09-27T06:09:11.842Z,3.90
2022-09-27T06:11:43.062Z,3.40
2022-09-27T06:14:16.027Z,5.13
2022-09-27T06:17:07.128Z,4.80
2022-09-27T06:19:37.330Z,4.23
2022-09-27T06:22:05.657Z,3.03
2022-09-27T06:24:42.663Z,5.80
2022-09-27T06:27:18.981Z,3.10
2022-09-27T06:29:54.042Z,2.40
2022-09-27T06:32:37.061Z,2.50
2022-09-27T06:35:31.143Z,2.90
2022-09-27T06:37:59.647Z,5.50
2022-09-27T06:40:28.481Z,2.47
2022-09-27T06:43:11.767Z,3.40
2022-09-27T06:46:04.761Z,3.00
2022-09-27T06:48:53.029Z,5.37
2022-09-27T06:51:22.909Z,3.10
2022-09-27T06:53:51.166Z,2.50
2022-09-27T06:56:19.749Z,3.00
2022-09-27T06:59:10.916Z,3.03
2022-09-27T07:01:47.059Z,2.27
2022-09-27T07:04:35.423Z,4.23
2022-09-27T07:07:18.097Z,2.93
2022-09-27T07:09:47.790Z,7.17
2022-09-27T07:12:16.204Z,6.73
2022-09-27T07:14:44.637Z,4.90
2022-09-27T07:17:17.586Z,4.07
2022-09-27T07:19:48.359Z,3.83
2022-09-27T07:22:16.810Z,4.87
2022-09-27T07:24:50.607Z,3.63
2022-09-27T07:27:19.416Z,3.23
2022-09-27T07:29:52.276Z,2.70
2022-09-27T07:32:21.972Z,2.53
2022-09-27T07:34:50.398Z,2.73
2022-09-27T07:37:18.793Z,5.33
2022-09-27T07:39:48.454Z,4.97
2022-09-27T07:42:16.956Z,5.07
2022-09-27T07:44:49.446Z,2.80
2022-09-27T07:47:43.997Z,6.77
2022-09-27T07:50:20.976Z,5.60
2022-09-27T07:53:01.818Z,2.97
2022-09-27T07:55:35.619Z,4.83
2022-09-27T07:58:11.623Z,3.77
2022-09-27T08:00:41.377Z,5.53
2022-09-27T08:03:16.163Z,5.37
2022-09-27T08:05:45.639Z,4.27
2022-09-27T08:08:14.307Z,3.67
2022-09-27T08:10:44.482Z,5.73
2022-09-27T08:13:14.663Z,5.03
2022-09-27T08:15:43.036Z,4.30
2022-09-27T08:18:12.999Z,3.17
2022-09-27T08:21:05.244Z,5.23
2022-09-27T08:23:43.577Z,4.93
2022-09-27T08:26:35.046Z,3.73
2022-09-27T08:29:12.757Z,3.97
2022-09-27T08:31:45.244Z,4.63
2022-09-27T08:34:15.264Z,4.23
2022-09-27T08:36:44.477Z,5.03
2022-09-27T08:39:13.110Z,4.07
2022-09-27T08:41:56.419Z,3.00
2022-09-27T08:44:35.401Z,4.87
2022-09-27T08:47:15.867Z,4.70
2022-09-27T08:49:52.903Z,4.83
2022-09-27T08:52:28.322Z,3.93
2022-09-27T08:55:04.027Z,4.57
2022-09-27T08:57:32.269Z,4.10
2022-09-27T09:00:07.210Z,5.13
2022-09-27T09:02:37.331Z,2.93
2022-09-27T09:05:13.237Z,3.73
2022-09-27T09:08:02.530Z,2.57
2022-09-27T09:11:00.544Z,3.80
2022-09-27T09:13:46.077Z,3.87
2022-09-27T09:16:24.494Z,3.23
2022-09-27T09:19:11.334Z,4.90
2022-09-27T09:22:13.521Z,3.23
2022-09-27T09:24:58.405Z,4.67
2022-09-27T09:27:35.352Z,3.27
2022-09-27T09:30:25.360Z,3.43
2022-09-27T09:33:15.938Z,2.57
2022-09-27T09:35:50.742Z,2.10
2022-09-27T09:38:26.502Z,2.27
2022-09-27T09:40:59.709Z,4.20
2022-09-27T09:43:34.733Z,4.33
2022-09-27T09:46:10.963Z,2.93
2022-09-27T09:48:46.626Z,4.27
2022-09-27T09:51:22.565Z,2.93
2022-09-27T09:53:58.370Z,2.43
2022-09-27T09:56:35.313Z,4.27
2022-09-27T09:59:10.220Z,3.63
2022-09-27T10:01:44.077Z,2.67
2022-09-27T10:04:19.942Z,8.80
2022-09-27T10:06:48.719Z,6.13
2022-09-27T10:09:23.802Z,3.07
2022-09-27T10:12:28.185Z,6.00
2022-09-27T10:14:59.960Z,3.83
2022-09-27T10:17:36.250Z,5.67
2022-09-27T10:20:07.407Z,3.70
2022-09-27T10:22:38.795Z,4.27
2022-09-27T10:25:19.720Z,5.93
2022-09-27T10:27:57.445Z,3.03
2022-09-27T10:30:35.029Z,3.60
2022-09-27T10:33:19.210Z,3.00
2022-09-27T10:36:03.147Z,2.10
2022-09-27T10:38:38.070Z,2.33
2022-09-27T10:41:25.974Z,3.27
2022-09-27T10:44:22.041Z,4.67
2022-09-27T10:47:02.222Z,3.93
2022-09-27T10:49:43.119Z,2.13
2022-09-27T10:52:26.331Z,1.70
2022-09-27T10:54:56.931Z,4.93
2022-09-27T10:57:28.929Z,3.53
2022-09-27T11:00:00.552Z,3.73
2022-09-27T11:02:31.018Z,2.10
2022-09-27T11:05:15.547Z,2.20
2022-09-27T11:07:52.797Z,2.13
2022-09-27T11:10:29.954Z,3.67
2022-09-27T11:13:25.401Z,2.57
2022-09-27T11:16:11.873Z,2.27
2022-09-27T11:18:50.488Z,1.53
2022-09-27T11:21:29.649Z,2.10
2022-09-27T11:24:11.006Z,2.07
2022-09-27T11:26:52.423Z,2.20
2022-09-27T11:29:36.706Z,1.30
2022-09-27T11:32:32.967Z,1.73
2022-09-27T11:35:13.555Z,1.67
2022-09-27T11:37:52.042Z,1.43
2022-09-27T11:40:31.785Z,1.37
2022-09-27T11:43:14.524Z,1.30
2022-09-27T11:49:07.962Z,2.77
2022-09-27T11:52:03.065Z,2.60
2022-09-27T11:54:59.754Z,3.40
2022-09-27T11:57:33.257Z,1.30
2022-09-27T12:00:13.372Z,1.70
2022-09-27T12:03:09.861Z,2.50
2022-09-27T12:05:57.711Z,1.97
2022-09-27T12:08:43.000Z,2.33
2022-09-27T12:11:19.626Z,1.40
2022-09-27T12:13:53.827Z,1.53
2022-09-27T12:16:24.185Z,2.20
2022-09-27T12:18:55.157Z,1.77
2022-09-27T12:21:54.067Z,3.23
2022-09-27T12:24:25.781Z,1.13
2022-09-27T12:27:17.790Z,1.27
2022-09-27T12:29:47.836Z,0.63
2022-09-27T12:32:21.957Z,0.70
2022-09-27T12:34:57.926Z,0.77
2022-09-27T12:37:30.153Z,1.13
2022-09-27T12:40:04.535Z,0.90
2022-09-27T12:42:43.155Z,0.70
2022-09-27T12:45:31.705Z,0.95
2022-09-27T12:48:09.362Z,0.80
2022-09-27T12:50:45.787Z,1.02
2022-09-27T12:53:23.611Z,1.13
2022-09-27T12:56:15.975Z,1.67
2022-09-27T12:59:10.351Z,1.47
2022-09-27T13:02:02.144Z,1.37
2022-09-27T13:04:54.974Z,3.13
2022-09-27T13:07:40.840Z,1.37
2022-09-27T13:10:31.585Z,1.20
2022-09-27T13:13:06.194Z,11.93
2022-09-27T13:15:39.686Z,11.87
2022-09-27T13:18:35.154Z,11.00
2022-09-27T13:21:06.550Z,3.90
2022-09-27T13:23:54.196Z,2.60
2022-09-27T13:26:48.748Z,2.67
2022-09-27T13:29:34.514Z,2.13
2022-09-27T13:32:22.451Z,1.50
2022-09-27T13:35:19.993Z,2.40
2022-09-27T13:37:59.632Z,1.23
2022-09-27T13:40:42.934Z,1.20
2022-09-27T13:43:51.525Z,1.30
2022-09-27T13:46:29.028Z,1.57
2022-09-27T13:49:00.670Z,0.83
2022-09-27T13:51:50.420Z,1.67
2022-09-27T13:54:41.746Z,1.23
2022-09-27T13:57:47.608Z,1.67
2022-09-27T14:00:22.841Z,2.15
2022-09-27T14:03:02.618Z,1.63
2022-09-27T14:05:35.972Z,0.70
2022-09-27T14:08:08.345Z,1.63
2022-09-27T14:10:37.613Z,2.30
2022-09-27T14:13:08.231Z,1.83
2022-09-27T14:15:48.176Z,1.85
2022-09-27T14:18:17.005Z,1.88
2022-09-27T14:20:48.035Z,2.13
2022-09-27T14:23:32.478Z,0.85
2022-09-27T14:26:00.765Z,1.42
2022-09-27T14:28:41.538Z,1.92
2022-09-27T14:31:23.106Z,1.50
2022-09-27T14:34:08.925Z,1.13
2022-09-27T14:36:57.411Z,2.33
2022-09-27T14:39:32.444Z,2.45
2022-09-27T14:42:06.511Z,5.25
2022-09-27T14:44:36.624Z,3.13
2022-09-27T14:47:17.585Z,2.17
2022-09-27T14:49:50.183Z,2.63
2022-09-27T14:52:24.277Z,2.47
2022-09-27T14:55:01.282Z,3.00
2022-09-27T14:57:34.040Z,2.63
2022-09-27T15:00:19.098Z,5.00
2022-09-27T15:02:47.778Z,2.20
2022-09-27T15:05:18.096Z,8.97
2022-09-27T15:07:47.819Z,1.40
2022-09-27T15:10:18.246Z,1.37
2022-09-27T15:12:49.109Z,2.93
2022-09-27T15:15:23.722Z,2.77
2022-09-27T15:17:52.160Z,2.40
2022-09-27T15:20:24.673Z,1.80
2022-09-27T15:22:54.006Z,2.23
2022-09-27T15:25:32.324Z,2.07
2022-09-27T15:28:02.479Z,2.03
2022-09-27T15:30:37.002Z,1.77
2022-09-27T15:33:06.162Z,2.40
2022-09-27T15:35:36.400Z,3.07
2022-09-27T15:38:25.883Z,1.47
2022-09-27T15:41:07.249Z,1.67
2022-09-27T15:43:39.508Z,3.20
2022-09-27T15:46:28.322Z,1.57
2022-09-27T15:49:33.783Z,2.60
2022-09-27T15:52:03.310Z,2.67
2022-09-27T15:54:35.771Z,3.03
2022-09-27T15:57:06.846Z,2.67
2022-09-27T15:59:37.032Z,3.90
2022-09-27T16:02:16.277Z,2.57
2022-09-27T16:04:45.261Z,2.80
2022-09-27T16:07:15.307Z,2.33
2022-09-27T16:09:45.101Z,1.90
2022-09-27T16:12:16.540Z,2.23
2022-09-27T16:14:46.925Z,2.53
2022-09-27T16:17:16.514Z,1.70
2022-09-27T16:19:44.834Z,6.10
2022-09-27T16:22:12.963Z,3.70
2022-09-27T16:24:43.564Z,3.00
2022-09-27T16:27:11.919Z,4.77
2022-09-27T16:29:44.165Z,2.10
2022-09-27T16:32:12.618Z,2.83
2022-09-27T16:34:42.390Z,3.93
2022-09-27T16:37:11.232Z,2.80
2022-09-27T16:39:40.357Z,2.13
2022-09-27T16:42:09.979Z,4.90
2022-09-27T16:44:38.479Z,2.90
2022-09-27T16:47:07.577Z,1.93
2022-09-27T16:49:53.652Z,2.60
2022-09-27T16:52:23.353Z,2.00
2022-09-27T16:54:51.867Z,3.23
2022-09-27T16:57:20.261Z,3.20
2022-09-27T16:59:48.774Z,2.30
2022-09-27T17:02:18.268Z,2.87
2022-09-27T17:04:46.645Z,3.70
2022-09-27T17:07:15.029Z,4.70
2022-09-27T17:09:45.081Z,3.33
2022-09-27T17:12:15.821Z,3.70
2022-09-27T17:14:44.270Z,3.53
2022-09-27T17:17:12.899Z,6.03
2022-09-27T17:19:41.216Z,4.80
2022-09-27T17:22:09.759Z,2.87
2022-09-27T17:24:38.475Z,4.10
2022-09-27T17:27:08.272Z,5.07
2022-09-27T17:29:38.024Z,5.20
2022-09-27T17:32:09.050Z,5.43
2022-09-27T17:34:37.537Z,8.23
2022-09-27T17:37:05.949Z,5.67
2022-09-27T17:39:34.209Z,16.97
2022-09-27T17:42:02.845Z,11.13
2022-09-27T17:44:33.139Z,11.20
2022-09-27T17:47:19.624Z,7.70
2022-09-27T17:50:05.164Z,10.47
2022-09-27T17:52:34.477Z,13.67
2022-09-27T17:55:03.444Z,19.37
2022-09-27T17:57:31.835Z,9.63
2022-09-27T18:00:02.049Z,5.50
2022-09-27T18:02:30.465Z,7.30
2022-09-27T18:04:58.909Z,6.33
2022-09-27T18:07:27.509Z,6.17
2022-09-27T18:09:55.855Z,4.70
2022-09-27T18:12:31.813Z,5.00
2022-09-27T18:15:02.489Z,6.07
2022-09-27T18:17:31.211Z,3.40
2022-09-27T18:20:02.200Z,4.07
2022-09-27T18:22:31.396Z,3.57
2022-09-27T18:25:01.000Z,2.17
2022-09-27T18:27:29.813Z,2.73
2022-09-27T18:30:00.010Z,2.90
2022-09-27T18:32:29.552Z,3.30
2022-09-27T18:34:57.843Z,3.30
2022-09-27T18:37:26.978Z,3.00
2022-09-27T18:39:55.642Z,6.93
2022-09-27T18:42:24.081Z,3.23
2022-09-27T18:44:52.388Z,3.87
2022-09-27T18:47:20.808Z,2.93
2022-09-27T18:49:50.533Z,2.77
2022-09-27T18:52:18.762Z,2.37
2022-09-27T18:54:46.940Z,2.80
2022-09-27T18:57:15.140Z,2.67
2022-09-27T18:59:43.255Z,2.67
2022-09-27T19:02:12.063Z,2.23
2022-09-27T19:04:40.259Z,2.00
2022-09-27T19:07:09.816Z,2.40
2022-09-27T19:09:37.957Z,2.87
2022-09-27T19:12:06.350Z,1.83
2022-09-27T19:14:34.660Z,1.60
2022-09-27T19:17:02.838Z,2.97
2022-09-27T19:19:30.977Z,2.00
2022-09-27T19:21:59.147Z,1.70
2022-09-27T19:24:28.985Z,2.97
2022-09-27T19:26:57.290Z,2.70
2022-09-27T19:29:25.853Z,1.87
2022-09-27T19:31:54.014Z,2.67
2022-09-27T19:34:22.263Z,2.10
2022-09-27T19:36:50.740Z,3.30
2022-09-27T19:39:19.019Z,3.33
2022-09-27T19:41:48.789Z,2.30
2022-09-27T19:44:17.009Z,2.50
2022-09-27T19:46:48.643Z,2.77
2022-09-27T19:49:18.833Z,2.97
2022-09-27T19:51:47.194Z,2.50
2022-09-27T19:54:15.643Z,3.00
2022-09-27T19:56:43.870Z,2.57
2022-09-27T19:59:13.896Z,2.23
2022-09-27T20:01:42.672Z,3.13
2022-09-27T20:04:12.731Z,3.40
2022-09-27T20:06:41.016Z,2.97
2022-09-27T20:09:09.638Z,3.40
2022-09-27T20:11:37.890Z,3.93
2022-09-27T20:14:06.111Z,5.27
2022-09-27T20:16:41.117Z,3.03
2022-09-27T20:19:10.628Z,2.77
2022-09-27T20:21:38.966Z,4.27
2022-09-27T20:24:10.788Z,3.23
2022-09-27T20:26:39.134Z,4.73
2022-09-27T20:29:07.890Z,3.70
2022-09-27T20:31:55.605Z,3.10
2022-09-27T20:34:29.314Z,3.63
2022-09-27T20:36:57.597Z,3.40
2022-09-27T20:39:25.912Z,5.97
2022-09-27T20:41:54.021Z,10.17
2022-09-27T20:44:22.369Z,5.10
2022-09-27T20:46:51.999Z,3.93
2022-09-27T20:49:20.906Z,7.43
2022-09-27T20:51:51.135Z,4.60
2022-09-27T20:54:19.671Z,5.97
2022-09-27T20:56:49.115Z,2.80
2022-09-27T20:59:20.101Z,4.30
2022-09-27T21:01:52.681Z,5.17
2022-09-27T21:04:22.358Z,6.83
2022-09-27T21:06:50.890Z,7.90
2022-09-27T21:09:19.855Z,7.83
2022-09-27T21:11:51.686Z,5.30
2022-09-27T21:14:20.290Z,6.50
2022-09-27T21:16:49.464Z,6.80
2022-09-27T21:19:20.424Z,5.10
2022-09-27T21:21:52.398Z,6.63
2022-09-27T21:24:20.888Z,7.47
2022-09-27T21:26:49.310Z,6.33
2022-09-27T21:29:18.084Z,7.70
2022-09-27T21:31:46.696Z,8.03
2022-09-27T21:34:14.906Z,8.77
2022-09-27T21:36:44.900Z,8.93
2022-09-27T21:39:15.550Z,12.03
2022-09-27T21:41:43.710Z,10.70
2022-09-27T21:44:12.570Z,9.30
2022-09-27T21:46:43.309Z,10.20
2022-09-27T21:49:12.309Z,11.77
2022-09-27T21:51:42.235Z,12.10
2022-09-27T21:54:14.765Z,9.17
2022-09-27T21:56:44.758Z,11.43
2022-09-27T21:59:15.470Z,10.37
2022-09-27T22:01:46.156Z,5.77
2022-09-27T22:04:14.777Z,6.53
2022-09-27T22:06:43.634Z,7.23
2022-09-27T22:09:17.224Z,9.40
2022-09-27T22:11:47.872Z,8.60
2022-09-27T22:14:18.152Z,8.90
2022-09-27T22:16:46.586Z,6.07
2022-09-27T22:19:16.296Z,6.47
2022-09-27T22:21:44.932Z,4.30
2022-09-27T22:24:16.936Z,7.37
2022-09-27T22:26:48.437Z,7.63
2022-09-27T22:29:17.501Z,9.83
2022-09-27T22:31:46.404Z,10.83
2022-09-27T22:34:18.639Z,11.57
2022-09-27T22:36:47.501Z,9.23
2022-09-27T22:39:17.737Z,8.23
2022-09-27T22:41:45.966Z,8.20
2022-09-27T22:44:14.232Z,7.43
2022-09-27T22:46:42.673Z,6.77
2022-09-27T22:49:11.329Z,7.87
2022-09-27T22:51:39.491Z,7.37
2022-09-27T22:54:08.102Z,6.50
2022-09-27T22:56:37.734Z,6.17
2022-09-27T22:59:05.910Z,7.07
2022-09-27T23:01:36.779Z,6.13
2022-09-27T23:04:05.069Z,5.60
2022-09-27T23:06:33.435Z,6.20
2022-09-27T23:09:05.043Z,6.90
2022-09-27T23:11:33.244Z,6.70
2022-09-27T23:14:06.085Z,4.83
2022-09-27T23:16:35.172Z,5.37
2022-09-27T23:19:04.541Z,5.40
2022-09-27T23:21:32.818Z,5.13
2022-09-27T23:24:01.709Z,3.57
2022-09-27T23:26:30.315Z,3.77
2022-09-27T23:29:00.168Z,5.50
2022-09-27T23:31:31.780Z,7.03
2022-09-27T23:34:03.264Z,8.03
2022-09-27T23:36:31.706Z,5.07
2022-09-27T23:39:01.563Z,9.87
2022-09-27T23:41:30.082Z,7.37
2022-09-27T23:43:58.300Z,6.67
2022-09-27T23:46:26.594Z,7.90
2022-09-27T23:48:58.932Z,9.83
2022-09-27T23:51:27.252Z,8.60
2022-09-27T23:53:57.117Z,8.87
2022-09-27T23:56:25.513Z,9.03
2022-09-27T23:58:53.679Z,10.27
